createdAt,value
2019-05-16T00:07:21.384Z,78.6
2019-05-16T00:22:36.508Z,80.7
2019-05-16T00:37:49.865Z,81.9
2019-05-16T00:53:03.287Z,82.6
2019-05-16T01:08:10.020Z,82.9
2019-05-16T01:23:29.985Z,84.5
2019-05-16T01:38:43.492Z,85.8
2019-05-16T01:53:58.281Z,86.6
2019-05-16T02:09:11.850Z,87
2019-05-16T02:24:22.813Z,88.2
2019-05-16T02:39:35.959Z,87.7
2019-05-16T02:54:52.132Z,88.5
2019-05-16T03:10:02.520Z,87.7
2019-05-16T03:25:12.283Z,88.6
2019-05-16T03:40:31.764Z,88.2
2019-05-16T03:55:41.287Z,89.7
2019-05-16T04:10:53.780Z,89.7
2019-05-16T04:26:01.125Z,89.8
2019-05-16T04:41:21.670Z,89.7
2019-05-16T04:56:32.353Z,90.2
2019-05-16T05:11:45.713Z,90.5
2019-05-16T05:27:00.099Z,90.7
2019-05-16T05:42:12.205Z,90.3
2019-05-16T05:57:23.984Z,89
2019-05-16T06:12:37.470Z,89.3
2019-05-16T06:27:51.447Z,89.1
2019-05-16T06:43:00.565Z,87.8
2019-05-16T06:58:16.008Z,86.9
2019-05-16T07:13:30.816Z,88.1
2019-05-16T07:28:43.196Z,87.7
2019-05-16T07:43:46.646Z,87.9
2019-05-16T07:59:10.635Z,88.2
2019-05-16T08:14:22.256Z,85.6
2019-05-16T08:29:35.667Z,85
2019-05-16T08:44:52.131Z,83
2019-05-16T09:00:02.764Z,80.3
2019-05-16T09:15:18.898Z,81.5
2019-05-16T09:30:30.152Z,79.5
2019-05-16T09:45:43.976Z,78.8
2019-05-16T10:00:52.907Z,77.9
2019-05-16T10:16:12.103Z,75.5
2019-05-16T10:31:48.347Z,71.9
2019-05-16T10:47:18.065Z,67.5
2019-05-16T11:02:46.393Z,68.7
2019-05-16T11:18:07.247Z,66.1
2019-05-16T11:33:21.243Z,65.9
2019-05-16T11:48:38.085Z,64.8
2019-05-16T12:03:50.023Z,65.7
2019-05-16T12:19:07.142Z,65.7
2019-05-16T12:34:18.800Z,64.6
2019-05-16T12:49:33.321Z,63.4
2019-05-16T13:04:47.868Z,63
2019-05-16T13:20:00.234Z,62.5
2019-05-16T13:35:17.517Z,62.4
2019-05-16T13:50:32.174Z,61.9
2019-05-16T14:05:48.089Z,62
2019-05-16T14:20:52.579Z,61.8
2019-05-16T14:36:16.607Z,62.2
2019-05-16T14:51:32.270Z,61.8
2019-05-16T15:06:47.294Z,62
2019-05-16T15:22:02.805Z,60.9
2019-05-16T15:37:17.342Z,61.3
2019-05-16T15:52:31.088Z,57.9
2019-05-16T16:07:48.356Z,58.5
2019-05-16T16:23:00.925Z,60.5
2019-05-16T16:38:07.790Z,60.5
2019-05-16T16:53:30.725Z,60.2
2019-05-16T17:08:47.771Z,60
2019-05-16T17:24:00.455Z,60.7
2019-05-16T17:39:18.025Z,60.6
2019-05-16T17:54:29.751Z,61.5
2019-05-16T18:09:45.429Z,62.8
2019-05-16T18:24:59.488Z,62.9
2019-05-16T18:40:16.784Z,64.2
2019-05-16T18:55:22.366Z,66
2019-05-16T19:10:43.270Z,67.5
2019-05-16T19:25:57.752Z,68.6
2019-05-16T19:41:12.562Z,69.8
2019-05-16T19:56:14.161Z,71.4
2019-05-16T20:11:40.781Z,72.8
2019-05-16T20:26:57.270Z,74
2019-05-16T20:42:09.394Z,75.2
2019-05-16T20:57:23.691Z,76
2019-05-16T21:12:33.865Z,76.5
2019-05-16T21:27:52.182Z,77.4
2019-05-16T21:43:07.858Z,78.3
2019-05-16T21:58:20.596Z,79.2
2019-05-16T22:13:24.968Z,79.9
2019-05-16T22:28:49.768Z,82.2
2019-05-16T22:44:08.433Z,76.5
2019-05-16T22:59:18.896Z,76.1
2019-05-16T23:14:33.364Z,77.9
2019-05-16T23:29:44.016Z,79.2
2019-05-16T23:45:01.872Z,81.2
